Time;durP1;ratioP1;P1;durP2;ratioP2;P2;SDS_P1;SDS_P2;PMS_P1;PMS_P2;Temp;Humidity;BMP_temperature;BMP_pressure;BME280_temperature;BME280_humidity;BME280_pressure;Samples;Min_cycle;Max_cycle;Signal;HPM_P1;HPM_P2
2022/02/05 00:00:40;;;;;;;9.70;1.58;;;3.90;99.90;;;;;;5025201;28;20569;-64
2022/02/05 00:03:15;;;;;;;17.67;1.83;;;3.90;99.90;;;;;;5004890;28;20122;-64
2022/02/05 00:05:58;;;;;;;12.82;1.40;;;4.00;99.90;;;;;;5023366;28;20288;-64
2022/02/05 00:40:49;;;;;;;4.88;2.05;;;3.90;99.90;;;;;;5026943;28;20496;-64
2022/02/05 00:43:16;;;;;;;2.42;0.98;;;3.90;99.90;;;;;;5027978;28;20869;-64
2022/02/05 00:45:48;;;;;;;5.55;1.58;;;4.00;99.90;;;;;;5026796;28;20095;-64
2022/02/05 00:48:15;;;;;;;11.90;1.83;;;4.00;99.90;;;;;;5042340;28;20403;-64
2022/02/05 00:50:47;;;;;;;13.60;2.42;;;4.20;99.90;;;;;;5027109;28;20493;-64
2022/02/05 00:53:34;;;;;;;2.72;0.73;;;4.20;99.90;;;;;;5028260;28;20089;-64
2022/02/05 00:56:09;;;;;;;8.88;1.70;;;4.30;99.90;;;;;;5026720;28;20476;-63
2022/02/05 00:58:39;;;;;;;11.65;1.23;;;4.30;99.90;;;;;;5025897;28;20044;-64
2022/02/05 01:01:06;;;;;;;15.75;2.55;;;4.30;99.90;;;;;;5026352;28;20060;-64
2022/02/05 01:03:33;;;;;;;7.38;1.40;;;4.30;99.90;;;;;;5028441;28;20050;-64
2022/02/05 01:06:03;;;;;;;1.63;0.43;;;4.30;99.90;;;;;;5027725;28;20042;-64
2022/02/05 01:08:31;;;;;;;8.40;1.20;;;4.30;99.90;;;;;;5041844;28;20048;-64
2022/02/05 01:10:57;;;;;;;9.65;1.83;;;4.20;99.90;;;;;;5026448;28;20095;-64
2022/02/05 01:13:23;;;;;;;4.85;1.77;;;4.30;99.90;;;;;;5025365;28;20048;-64
2022/02/05 01:16:48;;;;;;;12.15;1.65;;;4.30;99.90;;;;;;5027351;28;20125;-64
2022/02/05 01:18:41;;;;;;;2.20;0.80;;;4.20;99.90;;;;;;5035479;28;20447;-64
2022/02/05 01:23:40;;;;;;;3.83;1.10;;;4.20;99.90;;;;;;5013467;28;20059;-64
2022/02/05 01:28:57;;;;;;;13.75;1.58;;;4.10;99.90;;;;;;5019116;28;20077;-64
2022/02/05 01:31:27;;;;;;;12.57;1.63;;;4.10;99.90;;;;;;5023578;28;20116;-64
2022/02/05 01:53:24;;;;;;;11.20;1.05;;;4.00;99.90;;;;;;5008026;28;20488;-64
2022/02/05 02:19:39;;;;;;;14.95;2.75;;;4.40;99.90;;;;;;5027232;28;20049;-64
2022/02/05 02:32:03;;;;;;;5.80;1.45;;;4.20;99.90;;;;;;5024323;28;20064;-64
2022/02/05 02:34:34;;;;;;;18.02;2.75;;;4.10;99.90;;;;;;5024761;28;20049;-64
2022/02/05 02:37:14;;;;;;;5.88;1.45;;;4.10;99.90;;;;;;5024504;28;20602;-63
2022/02/05 02:40:07;;;;;;;15.50;2.47;;;4.10;99.90;;;;;;5026963;28;20053;-64
2022/02/05 02:42:32;;;;;;;27.17;2.65;;;4.10;99.90;;;;;;5037473;28;20084;-64
2022/02/05 02:44:57;;;;;;;12.30;1.90;;;4.00;99.90;;;;;;5021390;28;20073;-64
2022/02/05 02:47:23;;;;;;;25.35;2.70;;;4.00;99.90;;;;;;5031285;28;20120;-64
2022/02/05 02:49:59;;;;;;;15.95;2.80;;;4.00;99.90;;;;;;5026506;28;20136;-63
2022/02/05 02:57:59;;;;;;;9.63;1.35;;;4.10;99.90;;;;;;5018643;28;20167;-64
2022/02/05 03:00:26;;;;;;;20.42;3.63;;;4.10;99.90;;;;;;5025664;28;20499;-64
2022/02/05 03:02:52;;;;;;;8.63;1.52;;;4.10;99.90;;;;;;5013219;28;20133;-64
2022/02/05 03:05:18;;;;;;;12.32;2.70;;;4.10;99.90;;;;;;5025936;28;20381;-64
2022/02/05 03:07:44;;;;;;;11.60;2.03;;;4.10;99.90;;;;;;5025474;28;20053;-64
2022/02/05 03:10:11;;;;;;;2.88;1.35;;;4.10;99.90;;;;;;5026101;28;20041;-64
2022/02/05 03:12:36;;;;;;;2.22;0.57;;;4.00;99.90;;;;;;5017568;28;20048;-64
2022/02/05 03:15:04;;;;;;;16.45;2.90;;;4.00;99.90;;;;;;5026014;28;20037;-64
2022/02/05 03:17:52;;;;;;;4.28;0.75;;;4.00;99.90;;;;;;5024310;28;20037;-64
2022/02/05 03:20:19;;;;;;;3.00;0.43;;;3.90;99.90;;;;;;5025558;28;20399;-64
2022/02/05 03:22:45;;;;;;;13.30;1.58;;;3.90;99.90;;;;;;5024415;28;20042;-64
2022/02/05 03:25:11;;;;;;;3.45;0.65;;;4.00;99.90;;;;;;5023511;28;20041;-64
2022/02/05 03:27:37;;;;;;;19.52;2.78;;;3.90;99.90;;;;;;5026056;28;20133;-64
2022/02/05 03:30:03;;;;;;;11.52;0.85;;;3.90;99.90;;;;;;5040320;28;20091;-64
2022/02/05 03:32:29;;;;;;;6.25;1.23;;;3.80;99.90;;;;;;5024050;28;20058;-63
2022/02/05 03:34:55;;;;;;;15.82;2.10;;;3.90;99.90;;;;;;5024250;28;20567;-64
2022/02/05 03:37:21;;;;;;;10.90;1.88;;;3.90;99.90;;;;;;5025052;28;20042;-64
2022/02/05 03:39:48;;;;;;;18.88;2.25;;;3.90;99.90;;;;;;5024317;28;20156;-64
2022/02/05 03:42:14;;;;;;;4.25;1.08;;;3.90;99.90;;;;;;5024605;28;20037;-63
2022/02/05 03:44:40;;;;;;;11.15;1.17;;;3.90;99.90;;;;;;5024118;28;20085;-64
2022/02/05 03:47:06;;;;;;;8.50;1.48;;;4.00;99.90;;;;;;5024579;28;20069;-64
2022/02/05 03:49:32;;;;;;;6.13;1.38;;;4.00;99.90;;;;;;5024440;28;20349;-64
2022/02/05 03:51:58;;;;;;;6.53;1.10;;;4.00;99.90;;;;;;5024706;28;20096;-64
2022/02/05 03:54:25;;;;;;;16.95;2.30;;;4.00;99.90;;;;;;5025377;28;20076;-63
2022/02/05 03:56:51;;;;;;;5.50;1.02;;;4.10;99.90;;;;;;5025001;28;20029;-64
2022/02/05 03:59:17;;;;;;;19.52;3.10;;;4.10;99.90;;;;;;5040038;28;20049;-63
2022/02/05 04:01:43;;;;;;;5.38;1.20;;;4.00;99.90;;;;;;5025515;28;20063;-64
2022/02/05 04:04:09;;;;;;;9.02;1.30;;;4.00;99.90;;;;;;5022946;28;20132;-64
2022/02/05 04:06:36;;;;;;;4.82;1.00;;;4.00;99.90;;;;;;5025335;28;20539;-64
2022/02/05 04:09:06;;;;;;;9.88;2.88;;;4.10;99.90;;;;;;5010461;28;20491;-64
2022/02/05 04:15:57;;;;;;;13.25;2.05;;;4.10;99.90;;;;;;5025537;28;20120;-64
2022/02/05 04:17:09;;;;;;;8.40;1.70;;;4.10;99.90;;;;;;5024170;28;20072;-64
2022/02/05 04:19:34;;;;;;;24.63;3.20;;;4.10;99.90;;;;;;5024530;28;20044;-64
2022/02/05 04:22:00;;;;;;;12.32;2.25;;;4.10;99.90;;;;;;5024425;28;20398;-64
2022/02/05 04:24:26;;;;;;;24.70;3.92;;;4.00;99.90;;;;;;5024892;28;20048;-64
2022/02/05 04:26:52;;;;;;;9.68;2.10;;;3.90;99.90;;;;;;5024975;28;20037;-64
2022/02/05 04:29:17;;;;;;;17.20;2.50;;;3.90;99.90;;;;;;5021359;28;20045;-64
2022/02/05 04:31:43;;;;;;;14.10;1.70;;;3.90;99.90;;;;;;5023178;28;20064;-64
2022/02/05 04:34:09;;;;;;;4.53;0.73;;;3.80;99.90;;;;;;5021712;28;20044;-64
2022/02/05 04:36:36;;;;;;;22.23;2.72;;;3.80;99.90;;;;;;5024256;28;20049;-64
2022/02/05 04:39:09;;;;;;;17.10;2.47;;;3.80;99.90;;;;;;5024663;28;20447;-64
2022/02/05 05:00:00;;;;;;;18.85;2.72;;;3.90;99.90;;;;;;5023939;28;20514;-64
2022/02/05 05:05:17;;;;;;;28.75;4.55;;;3.80;99.90;;;;;;5024334;28;20045;-64
2022/02/05 05:10:32;;;;;;;18.73;3.50;;;3.70;99.90;;;;;;5024125;28;20085;-64
2022/02/05 05:13:07;;;;;;;;;;;3.80;99.90;;;;;;5040353;28;20049;-64
2022/02/05 05:19:12;;;;;;;17.95;3.00;;;3.80;99.90;;;;;;5025292;28;19932;-64
2022/02/05 05:21:05;;;;;;;12.02;2.78;;;3.60;99.90;;;;;;5027618;28;20057;-64
2022/02/05 05:23:31;;;;;;;13.75;2.05;;;3.60;99.90;;;;;;5024060;28;20045;-64
2022/02/05 05:25:57;;;;;;;8.60;1.33;;;3.60;99.90;;;;;;5023081;28;20456;-64
2022/02/05 05:28:22;;;;;;;4.20;1.00;;;3.60;99.90;;;;;;5028020;28;20091;-64
2022/02/05 05:30:48;;;;;;;4.35;1.15;;;3.70;99.90;;;;;;5027637;28;20522;-64
2022/02/05 05:33:14;;;;;;;12.18;2.03;;;3.70;99.90;;;;;;5027813;28;20459;-64
2022/02/05 05:35:40;;;;;;;10.82;1.83;;;3.60;99.90;;;;;;5025912;28;20050;-63
2022/02/05 05:38:07;;;;;;;11.48;2.00;;;3.60;99.90;;;;;;5026634;28;20127;-64
2022/02/05 05:40:35;;;;;;;8.23;0.85;;;3.50;99.90;;;;;;5027207;28;20132;-64
2022/02/05 05:43:18;;;;;;;12.00;2.45;;;3.50;99.90;;;;;;5027308;28;20120;-64
2022/02/05 05:48:31;;;;;;;14.07;1.80;;;3.40;99.90;;;;;;5024582;28;20064;-64
2022/02/05 05:50:58;;;;;;;9.73;1.67;;;3.30;99.90;;;;;;5027990;28;20137;-63
2022/02/05 05:53:24;;;;;;;9.02;1.00;;;3.30;99.90;;;;;;5025111;28;20470;-64
2022/02/05 05:55:50;;;;;;;12.73;1.23;;;3.30;99.90;;;;;;5026145;28;20041;-64
2022/02/05 05:58:18;;;;;;;11.55;2.30;;;3.30;99.90;;;;;;5026115;28;20048;-64
2022/02/05 06:00:50;;;;;;;16.00;1.67;;;3.30;99.90;;;;;;5027326;28;20060;-64
2022/02/05 06:03:17;;;;;;;14.40;2.45;;;3.40;99.90;;;;;;5022043;28;20123;-64
2022/02/05 06:05:43;;;;;;;13.27;1.27;;;3.30;99.90;;;;;;5027080;28;20099;-64
2022/02/05 06:08:10;;;;;;;1.00;0.30;;;3.30;99.90;;;;;;5025917;28;20048;-64
2022/02/05 06:10:36;;;;;;;5.65;1.55;;;3.40;99.90;;;;;;5026281;28;20588;-64
2022/02/05 06:13:02;;;;;;;18.45;2.92;;;3.60;99.90;;;;;;5027446;28;20045;-63
2022/02/05 06:15:28;;;;;;;11.13;1.75;;;3.60;99.90;;;;;;5025482;28;20440;-63
2022/02/05 06:17:54;;;;;;;10.43;2.58;;;3.60;99.90;;;;;;5025416;28;20117;-64
2022/02/05 06:20:19;;;;;;;24.52;4.80;;;3.60;99.90;;;;;;5026928;28;20049;-64
2022/02/05 06:22:45;;;;;;;19.88;3.08;;;3.50;99.90;;;;;;5026949;28;20120;-63
2022/02/05 06:25:11;;;;;;;25.27;3.15;;;3.40;99.90;;;;;;5042589;28;20040;-64
2022/02/05 06:27:37;;;;;;;19.77;2.88;;;3.30;99.90;;;;;;5026046;28;20495;-63
2022/02/05 06:30:04;;;;;;;16.10;2.30;;;3.20;99.90;;;;;;5016171;28;20060;-64
2022/02/05 06:32:30;;;;;;;11.20;2.38;;;3.10;99.90;;;;;;5026030;28;20563;-63
2022/02/05 06:34:55;;;;;;;15.80;2.92;;;3.10;99.90;;;;;;5026797;28;20639;-64
2022/02/05 06:37:21;;;;;;;10.85;1.77;;;3.00;99.90;;;;;;5026630;28;20056;-64
2022/02/05 06:39:47;;;;;;;19.65;2.05;;;3.00;99.90;;;;;;5018543;28;20046;-64
2022/02/05 06:42:13;;;;;;;8.85;1.50;;;3.00;99.90;;;;;;5026848;28;20045;-64
2022/02/05 06:44:38;;;;;;;16.05;2.22;;;3.00;99.90;;;;;;5025676;28;20077;-64
2022/02/05 06:47:05;;;;;;;9.85;1.27;;;3.10;99.90;;;;;;5023439;28;20160;-64
2022/02/05 06:49:30;;;;;;;7.07;0.82;;;3.10;99.90;;;;;;5020324;28;20044;-64
2022/02/05 06:51:57;;;;;;;15.07;1.35;;;3.00;99.90;;;;;;5020745;28;20050;-64
2022/02/05 06:54:23;;;;;;;12.35;1.75;;;3.10;99.90;;;;;;5024058;28;20088;-64
2022/02/05 06:56:49;;;;;;;0.80;0.77;;;3.10;99.90;;;;;;5024746;28;20047;-64
2022/02/05 06:59:14;;;;;;;11.52;0.80;;;3.10;99.90;;;;;;5041965;28;20492;-64
2022/02/05 07:01:40;;;;;;;13.98;1.27;;;3.20;99.90;;;;;;5025083;28;20041;-63
2022/02/05 07:04:06;;;;;;;15.70;2.30;;;3.20;99.90;;;;;;5022953;28;20041;-64
2022/02/05 07:06:33;;;;;;;14.25;2.58;;;3.20;99.90;;;;;;5015771;28;20092;-64
2022/02/05 07:09:00;;;;;;;7.25;1.42;;;3.20;99.90;;;;;;5023722;28;20442;-64
2022/02/05 07:11:26;;;;;;;4.95;0.80;;;3.20;99.90;;;;;;5023371;28;20084;-64
2022/02/05 07:13:54;;;;;;;10.75;1.83;;;3.20;99.90;;;;;;5023870;28;20092;-64
2022/02/05 07:16:25;;;;;;;9.30;1.35;;;3.30;99.90;;;;;;5025210;28;20045;-64
2022/02/05 07:21:29;;;;;;;13.43;2.63;;;3.40;99.90;;;;;;5023046;28;20491;-63
2022/02/05 07:29:17;;;;;;;2.65;0.98;;;3.40;99.90;;;;;;5023965;28;20136;-64
2022/02/05 07:31:49;;;;;;;9.15;1.80;;;3.40;99.90;;;;;;5022930;28;20398;-63
2022/02/05 07:34:17;;;;;;;15.88;2.20;;;3.40;99.90;;;;;;5025793;28;20550;-63
2022/02/05 07:36:43;;;;;;;6.35;1.40;;;3.40;99.90;;;;;;5024658;28;20057;-64
2022/02/05 07:39:10;;;;;;;4.32;0.82;;;3.40;99.90;;;;;;5020028;28;20053;-64
2022/02/05 07:41:39;;;;;;;13.13;1.50;;;3.50;99.90;;;;;;5023613;28;20431;-64
2022/02/05 07:44:09;;;;;;;10.80;0.98;;;3.50;99.90;;;;;;5025321;28;20056;-64
2022/02/05 07:46:36;;;;;;;4.05;0.73;;;3.60;99.90;;;;;;5018921;28;20041;-64
2022/02/05 07:49:02;;;;;;;9.95;1.40;;;3.60;99.90;;;;;;5022707;28;20057;-64
2022/02/05 07:51:28;;;;;;;13.10;2.47;;;3.60;99.90;;;;;;5017679;28;20562;-64
2022/02/05 07:53:54;;;;;;;12.65;1.92;;;3.60;99.90;;;;;;5023567;28;20126;-64
2022/02/05 07:56:19;;;;;;;10.70;1.05;;;3.60;99.90;;;;;;5040111;28;20048;-64
2022/02/05 07:58:45;;;;;;;5.45;0.88;;;3.60;99.90;;;;;;5021873;28;20120;-64
2022/02/05 08:01:11;;;;;;;2.08;0.22;;;3.70;99.90;;;;;;5022210;28;20042;-63
2022/02/05 08:03:37;;;;;;;5.22;0.80;;;3.80;99.90;;;;;;5024521;28;20041;-64
2022/02/05 08:06:05;;;;;;;2.58;0.40;;;3.80;99.90;;;;;;5023701;28;20046;-64
2022/02/05 08:08:34;;;;;;;0.15;0.15;;;3.90;99.90;;;;;;5039622;28;20073;-64
2022/02/05 08:11:04;;;;;;;3.95;0.75;;;3.90;99.90;;;;;;5022514;28;20037;-64
2022/02/05 08:13:32;;;;;;;;;;;4.00;99.90;;;;;;5028078;28;20127;-64
2022/02/05 08:16:10;;;;;;;9.13;1.30;;;4.00;99.90;;;;;;5023976;28;19931;-64
2022/02/05 08:18:38;;;;;;;2.35;0.55;;;4.10;99.90;;;;;;5023334;28;20067;-64
2022/02/05 08:21:04;;;;;;;3.28;0.50;;;4.10;99.90;;;;;;5022659;28;20042;-64
2022/02/05 08:23:31;;;;;;;16.63;2.00;;;4.20;99.90;;;;;;5023573;28;20515;-64
2022/02/05 08:25:58;;;;;;;4.22;0.80;;;4.30;99.90;;;;;;5022632;28;20045;-64
2022/02/05 08:28:27;;;;;;;5.78;1.23;;;4.30;99.90;;;;;;5022810;28;20415;-64
2022/02/05 08:30:52;;;;;;;13.85;1.85;;;4.50;99.90;;;;;;5023859;28;20621;-63
2022/02/05 08:33:20;;;;;;;8.85;1.45;;;4.40;99.90;;;;;;5021797;28;20047;-64
2022/02/05 08:35:48;;;;;;;12.80;2.03;;;4.50;99.90;;;;;;5022289;28;20038;-63
2022/02/05 08:38:13;;;;;;;6.32;1.17;;;4.50;99.90;;;;;;5022172;28;20095;-63
2022/02/05 08:40:39;;;;;;;10.73;1.58;;;4.60;99.90;;;;;;5019870;28;20049;-63
2022/02/05 08:43:05;;;;;;;6.57;1.33;;;4.60;99.90;;;;;;5024905;28;20554;-63
2022/02/05 08:45:31;;;;;;;12.70;1.45;;;4.70;99.90;;;;;;5015241;28;20124;-64
2022/02/05 08:47:57;;;;;;;5.57;0.93;;;4.80;99.90;;;;;;5018516;28;20089;-63
2022/02/05 08:50:22;;;;;;;7.75;1.48;;;4.80;99.90;;;;;;5022365;28;20135;-63
2022/02/05 08:52:53;;;;;;;16.75;1.35;;;4.80;99.90;;;;;;5035503;28;20251;-64
2022/02/05 08:55:20;;;;;;;11.90;2.03;;;4.80;99.90;;;;;;5025338;28;20334;-63
2022/02/05 08:57:46;;;;;;;19.73;3.20;;;4.70;99.90;;;;;;5025773;28;20484;-63
2022/02/05 09:00:14;;;;;;;15.10;2.58;;;4.70;99.90;;;;;;5027241;28;20043;-63
2022/02/05 09:02:52;;;;;;;23.38;2.72;;;4.70;99.90;;;;;;5040613;28;20056;-63
2022/02/05 09:05:44;;;;;;;17.17;2.55;;;4.80;99.90;;;;;;5026609;28;20100;-63
2022/02/05 09:08:17;;;;;;;18.80;2.55;;;4.90;99.90;;;;;;5020344;28;20054;-63
2022/02/05 09:11:02;;;;;;;18.90;2.75;;;5.00;99.90;;;;;;5027025;28;20499;-63
2022/02/05 09:16:14;;;;;;;18.35;1.77;;;5.10;99.90;;;;;;5026679;28;20056;-63
2022/02/05 09:18:42;;;;;;;20.15;2.78;;;5.10;99.90;;;;;;5025937;28;20045;-63
2022/02/05 09:21:08;;;;;;;18.85;2.25;;;5.00;99.90;;;;;;5018645;28;20123;-63
2022/02/05 09:23:39;;;;;;;16.65;2.08;;;4.90;99.90;;;;;;5017189;28;20037;-63
2022/02/05 09:26:06;;;;;;;14.90;1.55;;;4.80;99.90;;;;;;5026047;28;20042;-63
2022/02/05 09:28:32;;;;;;;17.25;2.15;;;4.80;99.90;;;;;;5025386;28;20073;-63
2022/02/05 09:33:35;;;;;;;21.80;2.13;;;4.80;99.90;;;;;;5022633;28;20045;-63
2022/02/05 09:36:01;;;;;;;20.08;2.60;;;4.80;99.90;;;;;;5026776;28;20115;-63
2022/02/05 09:38:27;;;;;;;32.50;3.50;;;5.00;99.90;;;;;;5026601;28;20080;-63
2022/02/05 09:40:53;;;;;;;21.42;3.60;;;5.10;99.90;;;;;;5020547;28;20073;-63
2022/02/05 09:43:30;;;;;;;17.90;2.30;;;5.20;99.90;;;;;;5027131;28;20045;-63
2022/02/05 09:45:58;;;;;;;19.05;3.00;;;5.50;99.90;;;;;;5023562;28;20541;-63
2022/02/05 09:48:27;;;;;;;24.02;3.78;;;5.70;99.90;;;;;;5025432;28;20410;-63
2022/02/05 09:50:54;;;;;;;10.32;1.38;;;5.80;99.90;;;;;;5024797;28;20034;-63
2022/02/05 09:53:21;;;;;;;13.02;2.00;;;5.80;99.90;;;;;;5041230;28;20064;-63
2022/02/05 09:55:50;;;;;;;16.52;2.25;;;5.80;99.90;;;;;;5024974;28;20146;-64
2022/02/05 09:58:17;;;;;;;20.02;2.78;;;5.90;99.90;;;;;;5019724;28;20528;-63
2022/02/05 10:01:00;;;;;;;8.43;1.63;;;6.00;99.90;;;;;;5022271;28;20068;-63
2022/02/05 10:03:29;;;;;;;26.15;3.63;;;6.10;99.90;;;;;;5024159;28;20048;-63
2022/02/05 10:06:09;;;;;;;21.85;2.63;;;6.20;99.90;;;;;;5041501;28;20405;-63
2022/02/05 10:08:37;;;;;;;32.13;4.53;;;6.20;99.90;;;;;;5022962;28;20107;-63
2022/02/05 10:11:04;;;;;;;16.92;2.22;;;6.30;99.90;;;;;;5026219;28;20033;-63
2022/02/05 10:13:30;;;;;;;8.48;1.52;;;6.30;99.90;;;;;;5021059;28;20053;-63
2022/02/05 10:15:57;;;;;;;17.92;3.22;;;6.40;99.90;;;;;;5022486;28;20037;-63
2022/02/05 10:18:35;;;;;;;13.75;3.63;;;6.50;99.90;;;;;;5023769;28;20052;-63
2022/02/05 10:21:21;;;;;;;22.73;2.60;;;6.60;99.90;;;;;;5023291;28;20049;-63
2022/02/05 10:23:55;;;;;;;7.85;1.30;;;6.60;99.90;;;;;;5024243;28;20399;-63
2022/02/05 10:26:47;;;;;;;15.35;3.03;;;6.70;99.90;;;;;;5026455;28;20053;-63
2022/02/05 10:29:15;;;;;;;13.50;2.30;;;6.70;99.90;;;;;;5023715;28;20053;-63
2022/02/05 10:32:14;;;;;;;21.67;3.30;;;6.70;99.90;;;;;;5026034;28;20038;-63
2022/02/05 10:35:19;;;;;;;30.23;3.40;;;6.60;99.90;;;;;;5020622;28;20424;-63
2022/02/05 10:37:46;;;;;;;21.98;3.75;;;6.50;99.90;;;;;;5025049;28;20068;-64
2022/02/05 10:40:15;;;;;;;26.02;2.75;;;6.40;99.90;;;;;;5025417;28;20041;-63
2022/02/05 10:45:31;;;;;;;21.50;3.30;;;6.40;99.90;;;;;;5026766;28;20049;-63
2022/02/05 10:47:59;;;;;;;19.05;2.30;;;6.50;99.90;;;;;;5015116;28;20392;-63
2022/02/05 10:50:30;;;;;;;15.93;3.30;;;6.50;99.90;;;;;;5020123;28;20064;-63
2022/02/05 10:53:28;;;;;;;17.10;2.85;;;6.50;99.90;;;;;;5026246;28;20229;-64
2022/02/05 11:07:15;;;;;;;26.65;2.55;;;6.70;99.90;;;;;;5015991;28;20053;-64
2022/02/05 11:09:43;;;;;;;6.60;1.65;;;6.80;99.90;;;;;;5018330;28;20056;-63
2022/02/05 11:20:42;;;;;;;9.93;1.63;;;6.80;99.90;;;;;;5024148;28;20041;-63
2022/02/05 11:23:10;;;;;;;14.95;2.78;;;6.80;99.90;;;;;;5040699;28;20555;-63
2022/02/05 11:25:38;;;;;;;6.18;1.23;;;6.90;99.90;;;;;;5015196;28;20077;-63
2022/02/05 11:28:06;;;;;;;18.25;2.53;;;6.90;99.90;;;;;;5019843;28;20041;-63
2022/02/05 11:30:35;;;;;;;11.25;2.22;;;7.00;99.90;;;;;;5019010;28;20380;-63
2022/02/05 11:33:07;;;;;;;10.43;1.92;;;7.00;99.90;;;;;;5024496;28;20049;-64
2022/02/05 11:36:09;;;;;;;8.27;1.70;;;6.90;99.90;;;;;;5023921;28;20045;-63
2022/02/05 11:38:35;;;;;;;10.68;1.75;;;6.90;99.90;;;;;;5023484;28;20076;-63
2022/02/05 11:41:03;;;;;;;13.80;2.67;;;6.80;99.90;;;;;;5035706;28;20053;-63
2022/02/05 11:43:36;;;;;;;12.55;1.80;;;6.90;99.90;;;;;;5022312;28;20049;-63
2022/02/05 11:46:05;;;;;;;10.00;2.03;;;6.90;99.90;;;;;;5020500;28;20042;-63
2022/02/05 11:48:37;;;;;;;6.65;1.50;;;6.90;99.90;;;;;;5017600;28;20500;-63
2022/02/05 11:51:10;;;;;;;16.33;2.42;;;6.90;99.90;;;;;;5019442;28;20061;-63
2022/02/05 11:53:58;;;;;;;11.43;0.90;;;6.90;99.90;;;;;;5019900;28;20050;-63
2022/02/05 11:56:55;;;;;;;16.63;2.60;;;6.90;99.90;;;;;;5020356;28;20504;-63
2022/02/05 11:59:49;;;;;;;20.30;1.95;;;6.90;99.90;;;;;;5019219;28;20056;-63
2022/02/05 12:02:20;;;;;;;8.82;1.52;;;6.80;99.90;;;;;;5023777;28;20248;-63
2022/02/05 12:04:46;;;;;;;;;;;6.80;99.90;;;;;;5023318;28;20041;-63
2022/02/05 12:07:12;;;;;;;17.23;2.53;;;6.80;99.90;;;;;;5013599;28;20260;-63
2022/02/05 12:09:44;;;;;;;16.88;2.00;;;6.80;99.90;;;;;;5022854;28;20220;-64
2022/02/05 12:12:25;;;;;;;8.32;1.63;;;6.80;99.90;;;;;;5039977;28;20165;-63
2022/02/05 12:15:13;;;;;;;10.23;1.38;;;6.80;99.90;;;;;;5037700;28;20046;-63
2022/02/05 12:18:36;;;;;;;10.25;1.52;;;6.70;99.90;;;;;;5036943;28;20037;-63
2022/02/05 12:21:16;;;;;;;17.63;2.35;;;6.70;99.90;;;;;;5018710;28;20500;-63
2022/02/05 12:26:25;;;;;;;9.73;1.90;;;6.90;99.90;;;;;;5020146;28;20447;-63
2022/02/05 12:28:54;;;;;;;17.58;2.13;;;6.80;99.90;;;;;;5025446;28;20425;-64
2022/02/05 12:31:28;;;;;;;14.67;2.30;;;6.80;99.90;;;;;;5026335;28;20050;-63
2022/02/05 12:33:59;;;;;;;15.23;2.35;;;6.80;99.90;;;;;;5021233;28;20089;-64
2022/02/05 12:36:41;;;;;;;14.32;2.47;;;6.80;99.90;;;;;;5016358;28;20111;-63
2022/02/05 12:39:12;;;;;;;15.35;2.20;;;6.80;99.90;;;;;;5026292;28;20164;-63
2022/02/05 12:41:49;;;;;;;20.13;2.25;;;7.00;99.90;;;;;;5025284;28;20044;-64
2022/02/05 12:44:18;;;;;;;9.27;2.15;;;7.00;99.90;;;;;;5017957;28;20389;-63
2022/02/05 12:46:52;;;;;;;3.43;0.73;;;7.10;99.90;;;;;;5025152;28;20053;-63
2022/02/05 12:49:23;;;;;;;19.23;2.20;;;7.00;99.90;;;;;;5024743;28;20046;-63
2022/02/05 12:51:50;;;;;;;14.73;2.05;;;6.90;99.90;;;;;;5026528;28;20088;-63
2022/02/05 12:54:20;;;;;;;18.48;2.25;;;6.90;99.90;;;;;;5019316;28;20528;-63
2022/02/05 12:56:47;;;;;;;7.87;1.47;;;6.90;99.90;;;;;;5039928;28;20073;-64
2022/02/05 12:59:29;;;;;;;11.73;2.00;;;7.00;99.90;;;;;;5041440;28;20287;-64
2022/02/05 13:02:02;;;;;;;12.82;2.42;;;6.90;99.90;;;;;;5024998;28;20104;-64
2022/02/05 13:04:34;;;;;;;15.95;2.67;;;6.90;99.90;;;;;;5026330;28;20460;-63
2022/02/05 13:07:08;;;;;;;19.30;2.72;;;7.00;99.90;;;;;;5042792;28;20163;-63
2022/02/05 13:09:55;;;;;;;18.25;3.22;;;7.00;99.90;;;;;;5026941;28;20076;-63
2022/02/05 13:12:28;;;;;;;16.25;2.03;;;7.00;99.90;;;;;;5024087;28;20046;-63
2022/02/05 13:15:02;;;;;;;18.08;2.50;;;7.00;99.90;;;;;;5027462;28;20038;-63
2022/02/05 13:26:41;;;;;;;15.13;2.72;;;7.40;99.90;;;;;;5016296;28;20555;-63
2022/02/05 13:36:37;;;;;;;16.15;2.63;;;7.20;99.90;;;;;;5023677;28;20042;-63
2022/02/05 13:44:23;;;;;;;25.88;2.80;;;7.30;99.90;;;;;;5025400;28;20084;-63
2022/02/05 13:46:59;;;;;;;19.53;2.67;;;7.40;99.90;;;;;;5025789;28;20128;-63
2022/02/05 13:49:25;;;;;;;3.30;1.05;;;7.40;99.90;;;;;;5024259;28;20144;-63
2022/02/05 13:51:51;;;;;;;15.82;2.67;;;7.40;99.90;;;;;;5024789;28;20564;-63
2022/02/05 13:54:17;;;;;;;8.05;1.75;;;7.40;99.90;;;;;;5025975;28;20076;-63
2022/02/05 13:56:42;;;;;;;9.48;1.50;;;7.30;99.90;;;;;;5025833;28;20120;-64
2022/02/05 13:59:22;;;;;;;11.75;2.13;;;7.40;99.90;;;;;;5026551;28;20128;-63
2022/02/05 14:01:48;;;;;;;7.82;1.58;;;7.40;99.90;;;;;;5022830;28;20034;-64
2022/02/05 14:04:23;;;;;;;15.13;2.38;;;7.40;99.90;;;;;;5039516;28;20061;-63
2022/02/05 14:06:58;;;;;;;12.48;1.73;;;7.30;99.90;;;;;;5026070;28;20045;-64
2022/02/05 14:09:32;;;;;;;5.93;1.77;;;7.20;99.90;;;;;;5026281;28;20129;-63
2022/02/05 14:12:21;;;;;;;9.75;1.58;;;7.20;99.90;;;;;;5027318;28;20038;-64
2022/02/05 14:15:04;;;;;;;4.28;1.23;;;7.20;99.90;;;;;;5006990;28;20488;-64
2022/02/05 14:17:30;;;;;;;24.60;2.55;;;7.20;99.90;;;;;;5022824;28;20125;-63
2022/02/05 14:20:13;;;;;;;13.15;1.65;;;7.20;99.90;;;;;;5026486;28;20545;-64
2022/02/05 14:22:42;;;;;;;21.85;3.33;;;7.30;99.90;;;;;;5021120;28;20037;-63
2022/02/05 14:25:27;;;;;;;5.22;0.95;;;7.30;99.90;;;;;;5024249;28;20050;-64
2022/02/05 14:28:10;;;;;;;17.02;2.45;;;7.20;99.90;;;;;;5024190;28;20523;-63
2022/02/05 14:30:37;;;;;;;13.05;2.83;;;7.20;99.90;;;;;;5025841;28;20041;-63
2022/02/05 14:33:07;;;;;;;12.75;1.58;;;7.20;99.90;;;;;;5036929;28;20084;-64
2022/02/05 14:41:16;;;;;;;11.93;1.60;;;7.30;99.90;;;;;;5024296;28;20034;-64
2022/02/05 14:43:41;;;;;;;10.88;1.80;;;7.20;99.90;;;;;;5025754;28;20040;-64
2022/02/05 14:46:07;;;;;;;13.48;3.05;;;7.20;99.90;;;;;;5021162;28;20037;-64
2022/02/05 14:48:33;;;;;;;9.02;1.90;;;7.20;99.90;;;;;;5040081;28;20052;-64
2022/02/05 14:51:00;;;;;;;7.43;1.25;;;7.10;99.90;;;;;;5022106;28;20382;-64
2022/02/05 14:53:26;;;;;;;9.57;1.95;;;7.10;99.90;;;;;;5020497;28;20054;-64
2022/02/05 14:55:52;;;;;;;6.25;1.10;;;7.10;99.90;;;;;;5022897;28;20428;-65
2022/02/05 14:58:17;;;;;;;8.85;1.20;;;7.10;99.90;;;;;;5039232;28;20408;-64
2022/02/05 15:00:43;;;;;;;11.18;1.52;;;7.00;99.90;;;;;;5024166;28;20034;-64
2022/02/05 15:03:14;;;;;;;8.90;1.60;;;7.00;99.90;;;;;;5038149;28;20746;-64
2022/02/05 15:05:41;;;;;;;12.30;1.88;;;7.00;99.90;;;;;;5024894;28;20096;-64
2022/02/05 15:08:07;;;;;;;5.28;1.33;;;7.00;99.90;;;;;;5023688;28;20034;-64
2022/02/05 15:10:34;;;;;;;7.20;1.23;;;7.00;99.90;;;;;;5022405;28;20049;-65
2022/02/05 15:13:02;;;;;;;13.13;2.17;;;6.90;99.90;;;;;;5024368;28;20049;-65
2022/02/05 15:15:29;;;;;;;11.00;2.40;;;6.90;99.90;;;;;;5022096;28;20037;-64
2022/02/05 15:17:55;;;;;;;19.67;3.15;;;6.90;99.90;;;;;;5040355;28;20049;-64
2022/02/05 15:20:22;;;;;;;17.35;2.08;;;6.90;99.90;;;;;;5024058;28;20111;-64
2022/02/05 15:22:49;;;;;;;15.52;2.70;;;6.90;99.90;;;;;;5039690;28;20049;-64
2022/02/05 15:25:15;;;;;;;24.83;3.70;;;6.90;99.90;;;;;;5025042;28;20059;-64
2022/02/05 15:27:42;;;;;;;11.13;1.83;;;6.80;99.90;;;;;;5023271;28;20057;-64
2022/02/05 15:30:09;;;;;;;7.00;1.60;;;6.80;99.90;;;;;;5017361;28;20047;-64
2022/02/05 15:32:35;;;;;;;9.68;2.35;;;6.80;99.90;;;;;;5018333;28;20049;-64
2022/02/05 15:35:00;;;;;;;11.00;2.20;;;6.80;99.90;;;;;;5023645;28;20053;-64
2022/02/05 15:37:26;;;;;;;6.10;0.93;;;6.80;99.90;;;;;;5023067;28;20037;-64
2022/02/05 15:45:06;;;;;;;12.95;1.83;;;6.80;99.90;;;;;;5023507;28;20112;-64
2022/02/05 15:47:32;;;;;;;10.10;1.80;;;6.70;99.90;;;;;;5022041;28;20115;-64
2022/02/05 15:49:58;;;;;;;14.95;1.75;;;6.70;99.90;;;;;;5022841;28;20045;-64
2022/02/05 15:52:24;;;;;;;6.72;1.60;;;6.70;99.90;;;;;;5031234;28;20511;-65
2022/02/05 15:54:51;;;;;;;15.77;2.40;;;6.70;99.90;;;;;;5039218;28;20048;-64
2022/02/05 15:57:34;;;;;;;13.05;2.40;;;6.70;99.90;;;;;;5020539;28;20486;-64
2022/02/05 16:00:07;;;;;;;13.63;1.38;;;6.70;99.90;;;;;;5024371;28;20060;-64
2022/02/05 16:02:32;;;;;;;8.35;1.95;;;6.70;99.90;;;;;;5021594;28;20085;-64
2022/02/05 16:04:58;;;;;;;11.20;1.90;;;6.70;99.90;;;;;;5024329;28;20550;-65
2022/02/05 16:07:24;;;;;;;7.78;2.35;;;6.70;99.90;;;;;;5023253;28;20064;-65
2022/02/05 16:09:49;;;;;;;9.88;1.77;;;6.70;99.90;;;;;;5036152;28;20070;-64
2022/02/05 16:12:15;;;;;;;6.85;1.38;;;6.60;99.90;;;;;;5038674;28;20045;-64
2022/02/05 16:14:41;;;;;;;6.05;1.38;;;6.60;99.90;;;;;;5036862;28;20565;-64
2022/02/05 16:17:07;;;;;;;23.38;2.67;;;6.60;99.90;;;;;;5019207;28;20056;-65
2022/02/05 16:19:33;;;;;;;10.48;1.77;;;6.60;99.90;;;;;;5023637;28;20069;-64
2022/02/05 16:22:00;;;;;;;12.23;1.92;;;6.60;99.90;;;;;;5024489;28;20057;-64
2022/02/05 16:24:26;;;;;;;13.35;1.77;;;6.60;99.90;;;;;;5023035;28;20053;-64